Time;durP1;ratioP1;P1;durP2;ratioP2;P2;SDS_P1;SDS_P2;PMS_P1;PMS_P2;Temp;Humidity;BMP_temperature;BMP_pressure;BME280_temperature;BME280_humidity;BME280_pressure;Samples;Min_cycle;Max_cycle;Signal;HPM_P1;HPM_P2
2022/11/19 00:01:50;;;;;;;9.60;6.20;;;;;;;;;;6244703;22;19993;-78
2022/11/19 00:04:16;;;;;;;10.57;6.80;;;;;;;;;;6268705;22;20368;-78
2022/11/19 00:06:41;;;;;;;10.48;7.05;;;;;;;;;;6268842;22;20000;-78
2022/11/19 00:09:09;;;;;;;10.27;7.00;;;;;;;;;;6268825;22;20340;-78
2022/11/19 00:14:19;;;;;;;9.55;6.35;;;;;;;;;;6266415;22;20022;-78
2022/11/19 00:16:45;;;;;;;9.43;6.47;;;;;;;;;;6269109;22;20020;-78
2022/11/19 00:19:11;;;;;;;10.18;6.60;;;;;;;;;;6244805;23;20008;-78
2022/11/19 00:21:36;;;;;;;9.55;6.93;;;;;;;;;;6243621;23;20029;-78
2022/11/19 00:24:02;;;;;;;9.15;6.93;;;;;;;;;;6268955;22;20334;-78
2022/11/19 00:26:27;;;;;;;12.88;6.40;;;;;;;;;;6268425;22;20386;-79
2022/11/19 00:28:53;;;;;;;8.38;5.60;;;;;;;;;;6242723;23;20016;-78
2022/11/19 00:31:18;;;;;;;7.90;5.85;;;;;;;;;;6244514;22;20003;-78
2022/11/19 00:33:44;;;;;;;8.15;5.57;;;;;;;;;;6243060;23;20008;-78
2022/11/19 00:36:10;;;;;;;8.98;6.20;;;;;;;;;;6268969;22;20015;-78
2022/11/19 00:38:36;;;;;;;7.97;5.82;;;;;;;;;;6268720;22;20077;-78
2022/11/19 00:41:01;;;;;;;7.93;5.40;;;;;;;;;;6269154;22;20016;-78
2022/11/19 00:46:14;;;;;;;9.65;5.60;;;;;;;;;;6265364;22;20497;-78
2022/11/19 00:48:40;;;;;;;9.13;4.88;;;;;;;;;;6268390;22;20011;-78
2022/11/19 00:51:06;;;;;;;8.07;5.15;;;;;;;;;;6269790;22;20448;-79
2022/11/19 00:53:31;;;;;;;;;;;;;;;;;;6245624;22;19996;-78
2022/11/19 00:56:00;;;;;;;9.27;7.13;;;;;;;;;;6242756;23;19982;-78
2022/11/19 00:58:26;;;;;;;10.18;6.40;;;;;;;;;;6244725;22;20030;-78
2022/11/19 01:00:52;;;;;;;10.80;7.20;;;;;;;;;;6268568;22;20048;-78
2022/11/19 01:03:17;;;;;;;7.78;6.22;;;;;;;;;;6244329;23;20070;-79
2022/11/19 01:05:43;;;;;;;9.88;6.40;;;;;;;;;;6268387;22;20020;-78
2022/11/19 01:08:08;;;;;;;10.80;7.22;;;;;;;;;;6242407;22;20039;-78
2022/11/19 01:10:34;;;;;;;9.75;6.85;;;;;;;;;;6243227;23;20067;-78
2022/11/19 01:15:46;;;;;;;8.60;6.70;;;;;;;;;;6242766;23;20035;-80
2022/11/19 01:18:11;;;;;;;9.02;6.53;;;;;;;;;;6268210;22;20028;-79
2022/11/19 01:20:37;;;;;;;11.00;6.30;;;;;;;;;;6242766;23;20309;-78
2022/11/19 01:23:02;;;;;;;9.30;6.70;;;;;;;;;;6242708;23;20032;-78
2022/11/19 01:25:28;;;;;;;10.90;6.80;;;;;;;;;;6244526;22;20065;-79
2022/11/19 01:27:54;;;;;;;11.48;6.75;;;;;;;;;;6267904;22;20015;-79
2022/11/19 01:30:20;;;;;;;10.30;7.13;;;;;;;;;;6242721;23;20008;-79
2022/11/19 01:32:45;;;;;;;10.25;7.13;;;;;;;;;;6242911;23;20008;-79
2022/11/19 01:35:11;;;;;;;10.85;7.43;;;;;;;;;;6217638;23;20008;-79
2022/11/19 01:37:36;;;;;;;9.85;6.65;;;;;;;;;;6242289;23;20000;-79
2022/11/19 01:40:02;;;;;;;8.65;6.57;;;;;;;;;;6268442;22;20008;-79
2022/11/19 01:45:17;;;;;;;12.30;7.25;;;;;;;;;;6264276;22;20022;-78
2022/11/19 01:47:43;;;;;;;11.65;6.65;;;;;;;;;;6241237;23;20016;-79
2022/11/19 01:50:08;;;;;;;8.80;6.32;;;;;;;;;;6242602;23;20373;-79
2022/11/19 01:52:34;;;;;;;9.32;6.68;;;;;;;;;;6242675;23;20363;-79
2022/11/19 01:55:00;;;;;;;9.55;7.07;;;;;;;;;;6268294;22;20345;-78
2022/11/19 01:57:26;;;;;;;10.23;6.50;;;;;;;;;;6268204;22;20004;-79
2022/11/19 01:59:52;;;;;;;9.07;6.20;;;;;;;;;;6267786;22;20066;-79
2022/11/19 02:02:18;;;;;;;10.00;6.53;;;;;;;;;;6244661;22;20012;-79
2022/11/19 02:04:44;;;;;;;11.38;6.10;;;;;;;;;;6242603;23;20018;-79
2022/11/19 02:07:10;;;;;;;10.30;6.63;;;;;;;;;;6267912;22;20083;-79
2022/11/19 02:09:35;;;;;;;8.85;6.07;;;;;;;;;;6268380;22;20012;-79
2022/11/19 02:12:19;;;;;;;10.23;6.75;;;;;;;;;;6268570;22;20001;-79
2022/11/19 02:15:03;;;;;;;8.43;6.35;;;;;;;;;;6244397;23;20015;-79
2022/11/19 02:17:48;;;;;;;10.57;6.63;;;;;;;;;;6244487;23;20012;-79
2022/11/19 02:20:25;;;;;;;9.48;6.03;;;;;;;;;;6245680;22;20440;-79
2022/11/19 02:23:05;;;;;;;9.85;6.63;;;;;;;;;;6244658;23;20088;-79
2022/11/19 02:25:49;;;;;;;9.38;6.15;;;;;;;;;;6244197;23;20016;-79
2022/11/19 02:28:15;;;;;;;10.07;6.78;;;;;;;;;;6218804;23;20325;-79
2022/11/19 02:30:41;;;;;;;10.07;6.93;;;;;;;;;;6219185;23;20006;-79
2022/11/19 02:33:12;;;;;;;11.77;6.75;;;;;;;;;;6244281;23;20431;-79
2022/11/19 02:36:10;;;;;;;10.32;7.68;;;;;;;;;;6270212;22;20016;-79
2022/11/19 02:38:35;;;;;;;14.13;8.43;;;;;;;;;;6178540;23;20008;-78
2022/11/19 02:41:00;;;;;;;11.63;8.48;;;;;;;;;;6244612;23;19996;-78
2022/11/19 02:43:30;;;;;;;12.38;8.38;;;;;;;;;;6245843;22;20012;-79
2022/11/19 02:46:06;;;;;;;12.68;7.95;;;;;;;;;;6270474;22;20020;-79
2022/11/19 02:48:38;;;;;;;11.93;8.70;;;;;;;;;;6269700;22;20375;-79
2022/11/19 02:51:04;;;;;;;14.30;8.85;;;;;;;;;;6244079;23;20047;-79
2022/11/19 02:53:29;;;;;;;12.98;9.15;;;;;;;;;;6269316;22;20000;-79
2022/11/19 02:56:10;;;;;;;23.35;14.90;;;;;;;;;;6269397;22;20043;-79
2022/11/19 03:04:31;;;;;;;16.23;9.43;;;;;;;;;;6245356;23;20012;-79
2022/11/19 03:06:59;;;;;;;15.23;10.60;;;;;;;;;;6218583;23;20051;-79
2022/11/19 03:09:25;;;;;;;14.63;10.13;;;;;;;;;;6245428;22;20424;-78
2022/11/19 03:11:51;;;;;;;19.63;11.25;;;;;;;;;;6269811;22;20015;-80
2022/11/19 03:17:11;;;;;;;14.10;10.32;;;;;;;;;;6266060;22;20023;-79
2022/11/19 03:19:39;;;;;;;15.73;10.70;;;;;;;;;;6269652;22;20550;-79
2022/11/19 03:22:10;;;;;;;15.85;10.90;;;;;;;;;;6269416;22;20012;-80
2022/11/19 03:24:39;;;;;;;17.98;10.43;;;;;;;;;;6269667;22;20020;-79
2022/11/19 03:27:24;;;;;;;13.98;9.70;;;;;;;;;;6243788;23;20387;-80
2022/11/19 03:29:50;;;;;;;15.68;10.63;;;;;;;;;;6269721;22;20008;-79
2022/11/19 03:32:17;;;;;;;15.00;9.48;;;;;;;;;;6244465;23;20433;-79
2022/11/19 03:34:43;;;;;;;13.40;8.80;;;;;;;;;;6243624;23;20407;-79
2022/11/19 03:37:09;;;;;;;12.55;8.57;;;;;;;;;;6269051;22;20328;-79
2022/11/19 03:39:35;;;;;;;12.68;8.57;;;;;;;;;;6269350;22;20016;-79
2022/11/19 03:42:00;;;;;;;12.45;8.38;;;;;;;;;;6218421;23;20004;-80
2022/11/19 03:44:27;;;;;;;11.02;7.22;;;;;;;;;;6269160;22;20043;-79
2022/11/19 03:47:10;;;;;;;10.43;6.95;;;;;;;;;;6269037;22;20008;-78
2022/11/19 03:49:37;;;;;;;10.90;7.28;;;;;;;;;;6218018;23;20061;-79
2022/11/19 03:52:10;;;;;;;9.80;6.40;;;;;;;;;;6269942;22;20000;-79
2022/11/19 03:54:36;;;;;;;9.63;6.07;;;;;;;;;;6268608;22;20015;-79
2022/11/19 03:57:02;;;;;;;9.95;6.60;;;;;;;;;;6269135;22;20118;-79
2022/11/19 03:59:28;;;;;;;8.73;6.00;;;;;;;;;;6268928;22;20447;-79
2022/11/19 04:01:53;;;;;;;9.10;6.28;;;;;;;;;;6269254;22;20012;-79
2022/11/19 04:04:36;;;;;;;;;;;;;;;;;;6243904;23;20032;-79
2022/11/19 04:07:05;;;;;;;9.48;6.13;;;;;;;;;;6243420;23;19958;-79
2022/11/19 04:09:31;;;;;;;9.13;6.55;;;;;;;;;;6269154;22;20015;-79
2022/11/19 04:11:56;;;;;;;11.25;5.65;;;;;;;;;;6243580;23;20348;-79
2022/11/19 04:14:21;;;;;;;11.13;5.80;;;;;;;;;;6268895;22;20428;-78
2022/11/19 04:16:47;;;;;;;11.32;5.97;;;;;;;;;;6268965;22;20012;-78
2022/11/19 04:19:12;;;;;;;7.63;5.28;;;;;;;;;;6217800;23;20000;-79
2022/11/19 04:21:38;;;;;;;9.73;5.30;;;;;;;;;;6244660;22;20008;-77
2022/11/19 04:24:04;;;;;;;8.98;5.30;;;;;;;;;;6243460;23;20467;-79
2022/11/19 04:26:29;;;;;;;11.98;6.15;;;;;;;;;;6243366;23;20035;-77
2022/11/19 04:28:55;;;;;;;11.40;5.72;;;;;;;;;;6243127;22;20499;-77
2022/11/19 04:31:20;;;;;;;11.55;6.03;;;;;;;;;;6243172;23;20015;-79
2022/11/19 04:33:46;;;;;;;9.02;6.05;;;;;;;;;;6243867;23;20000;-79
2022/11/19 04:36:11;;;;;;;8.70;5.72;;;;;;;;;;6269122;22;20503;-80
2022/11/19 04:38:36;;;;;;;8.02;5.65;;;;;;;;;;6243345;22;20376;-80
2022/11/19 04:41:02;;;;;;;7.38;4.90;;;;;;;;;;6218342;23;20012;-80
2022/11/19 04:43:28;;;;;;;10.57;6.10;;;;;;;;;;6268943;22;20004;-80
2022/11/19 04:45:53;;;;;;;7.65;5.50;;;;;;;;;;6269007;22;20019;-80
2022/11/19 04:48:19;;;;;;;9.18;5.88;;;;;;;;;;6268818;22;20452;-79
2022/11/19 04:50:44;;;;;;;9.70;6.05;;;;;;;;;;6245159;22;20008;-80
2022/11/19 04:53:10;;;;;;;9.30;6.05;;;;;;;;;;6269213;22;20425;-80
2022/11/19 04:55:35;;;;;;;11.45;6.80;;;;;;;;;;6244688;22;20043;-79
2022/11/19 04:58:01;;;;;;;11.00;7.40;;;;;;;;;;6244948;22;20004;-79
2022/11/19 05:00:26;;;;;;;19.65;11.35;;;;;;;;;;6267580;22;20020;-79
2022/11/19 05:02:52;;;;;;;11.27;7.50;;;;;;;;;;6242525;22;20019;-77
2022/11/19 05:05:17;;;;;;;12.27;6.80;;;;;;;;;;6268231;22;20382;-79
2022/11/19 05:07:43;;;;;;;12.15;7.70;;;;;;;;;;6217297;23;20004;-80
2022/11/19 05:10:08;;;;;;;16.75;8.38;;;;;;;;;;6244639;22;20034;-78
2022/11/19 05:12:34;;;;;;;11.93;7.28;;;;;;;;;;6243584;23;20020;-76
2022/11/19 05:14:59;;;;;;;16.38;8.05;;;;;;;;;;6268974;22;20012;-79
2022/11/19 05:17:25;;;;;;;15.82;7.68;;;;;;;;;;6268830;22;20008;-79
2022/11/19 05:19:50;;;;;;;16.90;7.90;;;;;;;;;;6243422;23;20356;-80
2022/11/19 05:22:16;;;;;;;10.85;7.55;;;;;;;;;;6218085;23;20004;-78
2022/11/19 05:24:41;;;;;;;12.65;7.72;;;;;;;;;;6243493;23;20012;-79
2022/11/19 05:27:07;;;;;;;14.88;7.57;;;;;;;;;;6267106;22;20058;-79
2022/11/19 05:29:32;;;;;;;15.65;7.93;;;;;;;;;;6243055;23;20484;-78
2022/11/19 05:31:58;;;;;;;12.32;6.80;;;;;;;;;;6244529;22;20050;-79
2022/11/19 05:34:23;;;;;;;11.27;6.78;;;;;;;;;;6243473;23;20019;-78
2022/11/19 05:36:49;;;;;;;9.25;6.10;;;;;;;;;;6242732;23;19996;-79
2022/11/19 05:39:14;;;;;;;10.85;6.90;;;;;;;;;;6268765;22;20007;-79
2022/11/19 05:41:40;;;;;;;9.55;6.90;;;;;;;;;;6244370;22;20004;-80
2022/11/19 05:44:06;;;;;;;11.70;6.75;;;;;;;;;;6217528;23;20079;-80
2022/11/19 05:46:31;;;;;;;13.85;6.38;;;;;;;;;;6244515;22;20000;-78
2022/11/19 05:48:57;;;;;;;;;;;;;;;;;;6246813;23;20436;-79
2022/11/19 05:51:22;;;;;;;9.15;6.05;;;;;;;;;;6246497;22;19953;-77
2022/11/19 05:53:48;;;;;;;10.93;6.45;;;;;;;;;;6246235;23;20003;-78
2022/11/19 05:56:13;;;;;;;10.70;6.88;;;;;;;;;;6244520;22;19996;-78
2022/11/19 05:58:39;;;;;;;10.27;5.68;;;;;;;;;;6245042;23;20443;-80
2022/11/19 06:01:05;;;;;;;10.07;6.10;;;;;;;;;;6270640;22;20055;-79
2022/11/19 06:03:31;;;;;;;11.65;6.22;;;;;;;;;;6246360;22;20067;-79
2022/11/19 06:05:56;;;;;;;12.38;6.57;;;;;;;;;;6270538;22;20029;-78
2022/11/19 06:08:22;;;;;;;7.70;5.65;;;;;;;;;;6271124;22;20274;-79
2022/11/19 06:10:47;;;;;;;17.15;6.10;;;;;;;;;;6270218;22;19996;-79
2022/11/19 06:13:13;;;;;;;8.73;5.65;;;;;;;;;;6270368;22;20065;-78
2022/11/19 06:15:38;;;;;;;13.13;6.05;;;;;;;;;;6270125;22;20000;-79
2022/11/19 06:18:04;;;;;;;10.90;5.57;;;;;;;;;;6270038;22;20019;-79
2022/11/19 06:20:29;;;;;;;10.45;6.13;;;;;;;;;;6244639;23;20494;-79
2022/11/19 06:22:54;;;;;;;12.00;6.15;;;;;;;;;;6244694;23;20402;-79
2022/11/19 06:25:20;;;;;;;9.25;5.70;;;;;;;;;;6270282;22;20443;-79
2022/11/19 06:27:45;;;;;;;9.13;5.90;;;;;;;;;;6269655;22;20032;-79
2022/11/19 06:30:12;;;;;;;11.02;5.75;;;;;;;;;;6246276;22;20340;-79
2022/11/19 06:32:37;;;;;;;;;;;;;;;;;;6244791;23;20000;-78
2022/11/19 06:35:03;;;;;;;12.07;6.63;;;;;;;;;;6244415;23;19930;-80
2022/11/19 06:37:28;;;;;;;14.63;7.07;;;;;;;;;;6270188;22;20018;-80
2022/11/19 06:39:54;;;;;;;12.68;6.78;;;;;;;;;;6268943;22;20062;-80
2022/11/19 06:42:35;;;;;;;10.52;6.90;;;;;;;;;;6269031;22;20003;-79
2022/11/19 06:45:11;;;;;;;11.02;7.95;;;;;;;;;;6243344;23;20019;-81
2022/11/19 06:47:36;;;;;;;12.93;8.87;;;;;;;;;;6243733;23;20016;-81
2022/11/19 06:50:02;;;;;;;11.27;8.10;;;;;;;;;;6243983;23;19999;-78
2022/11/19 06:52:27;;;;;;;18.73;9.10;;;;;;;;;;6243886;23;20012;-79
2022/11/19 06:54:53;;;;;;;15.63;7.78;;;;;;;;;;6244278;23;20138;-81
2022/11/19 06:57:18;;;;;;;13.98;7.68;;;;;;;;;;6245676;22;20031;-79
2022/11/19 06:59:44;;;;;;;14.20;8.02;;;;;;;;;;6269046;22;20158;-80
2022/11/19 07:02:10;;;;;;;18.98;8.05;;;;;;;;;;6269304;22;20012;-81
2022/11/19 07:04:35;;;;;;;13.30;8.02;;;;;;;;;;6244799;23;20062;-81
2022/11/19 07:07:01;;;;;;;15.93;10.13;;;;;;;;;;6244791;23;20016;-79
2022/11/19 07:09:26;;;;;;;26.02;10.88;;;;;;;;;;6247363;22;20003;-79
2022/11/19 07:11:52;;;;;;;18.38;8.27;;;;;;;;;;6246248;23;20035;-79
2022/11/19 07:14:17;;;;;;;15.55;8.90;;;;;;;;;;6269683;22;20288;-78
2022/11/19 07:16:43;;;;;;;14.57;8.55;;;;;;;;;;6246003;23;20014;-80
2022/11/19 07:19:08;;;;;;;14.50;8.05;;;;;;;;;;6269802;22;20309;-79
2022/11/19 07:21:34;;;;;;;15.63;8.23;;;;;;;;;;6246401;22;20012;-80
2022/11/19 07:24:00;;;;;;;14.32;8.05;;;;;;;;;;6245871;22;20336;-78
2022/11/19 07:26:25;;;;;;;17.25;8.07;;;;;;;;;;6270273;22;20016;-78
2022/11/19 07:28:51;;;;;;;16.60;8.60;;;;;;;;;;6245783;22;20386;-78
2022/11/19 07:31:17;;;;;;;;;;;;;;;;;;6246134;22;20008;-78
2022/11/19 07:33:42;;;;;;;13.63;8.10;;;;;;;;;;6246201;22;19910;-80
2022/11/19 07:36:08;;;;;;;15.65;8.35;;;;;;;;;;6245545;22;20015;-79
2022/11/19 07:38:34;;;;;;;13.93;8.80;;;;;;;;;;6268662;22;20375;-78
2022/11/19 07:41:00;;;;;;;18.35;9.13;;;;;;;;;;6269126;22;20066;-77
2022/11/19 07:43:25;;;;;;;15.73;8.73;;;;;;;;;;6243182;23;20008;-79
2022/11/19 07:45:51;;;;;;;17.95;8.95;;;;;;;;;;6244999;22;20008;-79
2022/11/19 07:48:16;;;;;;;17.65;9.35;;;;;;;;;;6245666;22;20004;-80
2022/11/19 07:50:42;;;;;;;25.90;16.25;;;;;;;;;;6245678;23;20094;-78
2022/11/19 07:53:07;;;;;;;18.85;10.57;;;;;;;;;;6245674;22;20079;-77
2022/11/19 07:55:33;;;;;;;20.05;10.55;;;;;;;;;;6244134;23;20008;-79
2022/11/19 07:57:59;;;;;;;22.60;11.05;;;;;;;;;;6270455;22;20008;-76
2022/11/19 08:00:24;;;;;;;16.17;9.63;;;;;;;;;;6244727;22;20024;-77
2022/11/19 08:02:50;;;;;;;15.73;9.70;;;;;;;;;;6269653;22;20016;-80
2022/11/19 08:05:15;;;;;;;17.55;9.35;;;;;;;;;;6270173;22;20023;-78
2022/11/19 08:07:41;;;;;;;18.58;10.38;;;;;;;;;;6245443;22;20058;-80
2022/11/19 08:10:07;;;;;;;17.00;10.30;;;;;;;;;;6269496;22;20019;-79
2022/11/19 08:12:33;;;;;;;24.23;11.30;;;;;;;;;;6269899;22;20046;-79
2022/11/19 08:14:58;;;;;;;26.52;11.65;;;;;;;;;;6245845;23;20004;-79
2022/11/19 08:20:08;;;;;;;27.98;11.02;;;;;;;;;;6244769;23;20410;-78
2022/11/19 08:22:39;;;;;;;18.25;10.32;;;;;;;;;;6245990;22;20023;-79
2022/11/19 08:25:05;;;;;;;17.08;10.70;;;;;;;;;;6244481;23;20432;-78
2022/11/19 08:27:30;;;;;;;17.33;10.00;;;;;;;;;;6269550;22;20098;-80
2022/11/19 08:29:56;;;;;;;19.05;11.00;;;;;;;;;;6243848;23;20012;-80
2022/11/19 08:32:21;;;;;;;18.63;11.07;;;;;;;;;;6246452;23;20007;-80
2022/11/19 08:34:47;;;;;;;19.52;10.55;;;;;;;;;;6245500;22;20094;-79
2022/11/19 08:37:12;;;;;;;25.08;13.18;;;;;;;;;;6269478;22;20024;-79
2022/11/19 08:39:39;;;;;;;25.73;13.90;;;;;;;;;;6245447;22;20356;-80
2022/11/19 08:44:48;;;;;;;21.60;13.13;;;;;;;;;;6265764;22;20012;-78
2022/11/19 08:47:14;;;;;;;21.00;13.40;;;;;;;;;;6245533;22;20011;-81
2022/11/19 08:49:39;;;;;;;24.45;13.60;;;;;;;;;;6269449;22;20771;-78
2022/11/19 08:52:05;;;;;;;20.95;13.60;;;;;;;;;;6268678;22;20057;-79
2022/11/19 08:54:31;;;;;;;18.73;13.18;;;;;;;;;;6269138;22;20012;-78
2022/11/19 08:56:56;;;;;;;24.10;13.70;;;;;;;;;;6245335;22;19996;-77
2022/11/19 08:59:22;;;;;;;40.05;14.80;;;;;;;;;;6268818;22;20031;-78
2022/11/19 09:01:48;;;;;;;;;;;;;;;;;;6243937;23;20440;-80
2022/11/19 09:04:14;;;;;;;22.92;14.18;;;;;;;;;;6243238;23;20343;-78
2022/11/19 09:06:39;;;;;;;20.58;13.50;;;;;;;;;;6269179;22;19996;-80
2022/11/19 09:09:05;;;;;;;24.63;14.80;;;;;;;;;;6268883;22;20035;-78
2022/11/19 09:11:30;;;;;;;;;;;;;;;;;;6245203;23;20044;-79
2022/11/19 09:13:56;;;;;;;32.15;15.38;;;;;;;;;;6244553;23;20328;-78
2022/11/19 09:16:21;;;;;;;;;;;;;;;;;;6243594;23;19996;-78
2022/11/19 09:18:47;;;;;;;23.23;15.25;;;;;;;;;;6244640;22;19914;-78
2022/11/19 09:21:12;;;;;;;23.35;15.95;;;;;;;;;;6268582;22;20007;-79
2022/11/19 09:23:38;;;;;;;26.77;16.50;;;;;;;;;;6244879;23;20081;-78
2022/11/19 09:26:04;;;;;;;22.85;16.08;;;;;;;;;;6243905;23;20078;-79
2022/11/19 09:28:30;;;;;;;25.23;16.48;;;;;;;;;;6245267;22;20014;-79
2022/11/19 09:30:59;;;;;;;28.02;18.42;;;;;;;;;;6245131;23;20087;-79
2022/11/19 09:33:25;;;;;;;28.83;17.85;;;;;;;;;;6244544;23;20436;-80
2022/11/19 09:35:50;;;;;;;29.15;17.90;;;;;;;;;;6244901;23;19996;-79
2022/11/19 09:38:16;;;;;;;29.85;18.40;;;;;;;;;;6244767;23;20022;-78
2022/11/19 09:40:44;;;;;;;27.98;18.02;;;;;;;;;;6218404;23;20400;-79
2022/11/19 09:43:16;;;;;;;29.33;18.33;;;;;;;;;;6244421;22;20008;-78
2022/11/19 09:45:48;;;;;;;31.67;18.48;;;;;;;;;;6268506;22;20409;-77
2022/11/19 09:48:16;;;;;;;31.50;18.67;;;;;;;;;;6243108;23;20019;-79
2022/11/19 09:50:45;;;;;;;27.30;18.13;;;;;;;;;;6245030;23;19996;-78
2022/11/19 09:53:14;;;;;;;25.50;17.85;;;;;;;;;;6268693;22;20019;-80
2022/11/19 09:55:40;;;;;;;30.77;19.13;;;;;;;;;;6268860;22;20023;-79
2022/11/19 09:58:10;;;;;;;29.85;18.67;;;;;;;;;;6269303;22;20063;-78
2022/11/19 10:00:35;;;;;;;29.45;19.35;;;;;;;;;;6244757;22;20028;-78
2022/11/19 10:03:02;;;;;;;27.60;18.65;;;;;;;;;;6244257;23;20490;-80
2022/11/19 10:05:41;;;;;;;25.67;18.20;;;;;;;;;;6268508;22;20327;-79
2022/11/19 10:08:11;;;;;;;25.40;17.40;;;;;;;;;;6268477;22;20015;-78
2022/11/19 10:10:40;;;;;;;30.90;17.00;;;;;;;;;;6268471;22;20016;-78
2022/11/19 10:13:11;;;;;;;26.95;17.80;;;;;;;;;;6268081;22;20122;-78
2022/11/19 10:15:41;;;;;;;33.70;17.95;;;;;;;;;;6243917;22;20012;-78
2022/11/19 10:18:06;;;;;;;28.83;17.60;;;;;;;;;;6244640;22;20020;-78
2022/11/19 10:20:31;;;;;;;25.48;18.13;;;;;;;;;;6245212;23;20011;-78
2022/11/19 10:23:12;;;;;;;26.42;16.75;;;;;;;;;;6244083;22;20015;-78
2022/11/19 10:25:38;;;;;;;27.88;17.33;;;;;;;;;;6244184;22;20012;-78
2022/11/19 10:28:22;;;;;;;24.50;17.48;;;;;;;;;;6268327;22;20008;-77
2022/11/19 10:30:53;;;;;;;26.65;16.92;;;;;;;;;;6268161;22;20058;-78
2022/11/19 10:33:26;;;;;;;25.48;16.73;;;;;;;;;;6268963;22;20083;-81
2022/11/19 10:35:57;;;;;;;23.83;15.98;;;;;;;;;;6270360;22;20011;-78
2022/11/19 10:38:23;;;;;;;23.58;16.85;;;;;;;;;;6244579;23;20016;-78
2022/11/19 10:40:54;;;;;;;20.95;16.17;;;;;;;;;;6244815;23;20016;-78
2022/11/19 10:43:22;;;;;;;23.80;15.77;;;;;;;;;;6246571;22;20023;-80
2022/11/19 10:45:47;;;;;;;25.75;16.90;;;;;;;;;;6246150;22;20456;-79
2022/11/19 10:48:22;;;;;;;24.75;16.77;;;;;;;;;;6270122;22;20084;-80
2022/11/19 10:50:48;;;;;;;21.35;16.48;;;;;;;;;;6246411;22;20012;-78
2022/11/19 10:53:15;;;;;;;25.65;16.48;;;;;;;;;;6270231;22;20050;-77
2022/11/19 10:55:41;;;;;;;26.55;16.25;;;;;;;;;;6246344;22;20023;-80
2022/11/19 10:58:09;;;;;;;19.65;14.95;;;;;;;;;;6269950;22;20004;-80
2022/11/19 11:00:36;;;;;;;18.55;14.45;;;;;;;;;;6247147;22;20123;-79
2022/11/19 11:03:04;;;;;;;;;;;;;;;;;;6246885;22;20012;-78
2022/11/19 11:05:29;;;;;;;22.35;14.43;;;;;;;;;;6246747;22;19994;-80
2022/11/19 11:07:56;;;;;;;22.63;15.98;;;;;;;;;;6270908;22;20124;-79
2022/11/19 11:10:36;;;;;;;19.27;14.63;;;;;;;;;;6271051;22;20018;-78
2022/11/19 11:15:50;;;;;;;25.42;14.93;;;;;;;;;;6245857;23;20008;-79
2022/11/19 11:18:16;;;;;;;26.35;15.35;;;;;;;;;;6245768;23;20141;-79
2022/11/19 11:20:46;;;;;;;18.90;14.95;;;;;;;;;;6245987;22;20008;-78
2022/11/19 11:23:13;;;;;;;27.17;16.13;;;;;;;;;;6269975;22;20095;-80
2022/11/19 11:25:39;;;;;;;25.38;15.35;;;;;;;;;;6269386;22;20012;-79
2022/11/19 11:28:06;;;;;;;21.08;14.48;;;;;;;;;;6269825;22;20797;-79
2022/11/19 11:30:31;;;;;;;21.23;14.65;;;;;;;;;;6270099;22;20093;-79
2022/11/19 11:32:57;;;;;;;23.02;15.88;;;;;;;;;;6246216;23;19996;-77
2022/11/19 11:35:35;;;;;;;22.38;14.65;;;;;;;;;;6244491;23;20061;-80
2022/11/19 11:38:00;;;;;;;22.33;16.35;;;;;;;;;;6270931;22;20383;-79
2022/11/19 11:40:26;;;;;;;17.80;14.55;;;;;;;;;;6270473;22;20008;-78
2022/11/19 11:42:51;;;;;;;19.38;13.82;;;;;;;;;;6245807;23;20016;-80
2022/11/19 11:45:19;;;;;;;22.15;14.93;;;;;;;;;;6269629;22;20028;-79
2022/11/19 11:47:44;;;;;;;21.40;14.15;;;;;;;;;;6270066;22;20015;-79
2022/11/19 11:50:14;;;;;;;21.55;15.30;;;;;;;;;;6245755;22;20000;-78
2022/11/19 11:52:40;;;;;;;23.52;14.50;;;;;;;;;;6269889;22;20004;-79
2022/11/19 11:55:10;;;;;;;24.85;14.60;;;;;;;;;;6269160;22;20428;-80
2022/11/19 11:57:36;;;;;;;22.88;14.27;;;;;;;;;;6269895;22;20482;-79
2022/11/19 12:00:06;;;;;;;31.05;15.02;;;;;;;;;;6269681;22;20058;-79
2022/11/19 12:02:32;;;;;;;19.40;14.73;;;;;;;;;;6269804;22;20016;-81
2022/11/19 12:04:58;;;;;;;18.15;15.13;;;;;;;;;;6244118;22;20095;-79
2022/11/19 12:07:33;;;;;;;20.70;15.30;;;;;;;;;;6245934;22;20016;-79
2022/11/19 12:10:02;;;;;;;21.65;15.55;;;;;;;;;;6270203;22;20015;-80
2022/11/19 12:12:27;;;;;;;24.38;16.00;;;;;;;;;;6269723;22;20099;-80
2022/11/19 12:14:57;;;;;;;21.42;15.10;;;;;;;;;;6270049;22;20008;-82
2022/11/19 12:17:29;;;;;;;23.80;14.60;;;;;;;;;;6269937;22;20008;-79
2022/11/19 12:19:58;;;;;;;24.08;14.95;;;;;;;;;;6245565;22;20015;-80
2022/11/19 12:22:30;;;;;;;22.80;13.32;;;;;;;;;;6269895;22;20000;-80
2022/11/19 12:25:14;;;;;;;20.50;14.70;;;;;;;;;;6269769;22;20050;-80
2022/11/19 12:27:40;;;;;;;20.48;15.13;;;;;;;;;;6245472;23;20008;-80
2022/11/19 12:30:05;;;;;;;20.50;16.40;;;;;;;;;;6245658;23;20000;-81
2022/11/19 12:32:45;;;;;;;22.05;17.33;;;;;;;;;;6244309;23;20012;-80
2022/11/19 12:35:15;;;;;;;22.85;17.20;;;;;;;;;;6269976;22;20008;-81
2022/11/19 12:37:44;;;;;;;25.38;13.85;;;;;;;;;;6269390;22;20007;-81
2022/11/19 12:40:28;;;;;;;20.05;12.88;;;;;;;;;;6269168;22;20093;-81
2022/11/19 12:43:03;;;;;;;19.92;13.38;;;;;;;;;;6245412;23;20088;-80
2022/11/19 12:45:42;;;;;;;19.88;12.75;;;;;;;;;;6245174;23;20019;-81
2022/11/19 12:48:26;;;;;;;18.10;12.48;;;;;;;;;;6269054;22;20016;-81
2022/11/19 12:50:55;;;;;;;21.88;12.13;;;;;;;;;;6245484;22;20042;-82
2022/11/19 12:53:26;;;;;;;17.45;12.73;;;;;;;;;;6268878;22;20007;-80
2022/11/19 12:56:00;;;;;;;18.92;12.35;;;;;;;;;;6245132;22;20011;-80
2022/11/19 12:58:44;;;;;;;20.02;12.25;;;;;;;;;;6243683;22;20494;-81
2022/11/19 13:01:24;;;;;;;21.63;11.85;;;;;;;;;;6243472;23;20448;-81
2022/11/19 13:03:55;;;;;;;20.15;12.27;;;;;;;;;;6269214;22;20015;-80
2022/11/19 13:06:23;;;;;;;16.38;11.43;;;;;;;;;;6245125;22;20058;-79
2022/11/19 13:08:58;;;;;;;20.13;11.57;;;;;;;;;;6244967;22;20010;-81
2022/11/19 13:11:24;;;;;;;20.23;11.25;;;;;;;;;;6269107;22;20008;-81
2022/11/19 13:13:51;;;;;;;15.50;10.40;;;;;;;;;;6245223;23;20135;-79
2022/11/19 13:16:17;;;;;;;16.65;10.57;;;;;;;;;;6243502;23;20149;-81
2022/11/19 13:18:42;;;;;;;;;;;;;;;;;;6244113;23;20000;-80
2022/11/19 13:21:20;;;;;;;18.60;10.90;;;;;;;;;;6243191;23;19914;-81
2022/11/19 13:23:46;;;;;;;16.35;10.10;;;;;;;;;;6268348;22;20016;-81
2022/11/19 13:26:11;;;;;;;;;;;;;;;;;;6269484;22;20000;-79
2022/11/19 13:28:45;;;;;;;18.50;10.35;;;;;;;;;;6243060;23;19911;-81
2022/11/19 13:31:29;;;;;;;15.20;9.43;;;;;;;;;;6269104;22;20012;-79
2022/11/19 13:33:56;;;;;;;16.13;9.00;;;;;;;;;;6244890;23;20167;-80
2022/11/19 13:36:24;;;;;;;20.67;10.00;;;;;;;;;;6268184;22;20001;-80
2022/11/19 13:39:12;;;;;;;19.02;10.07;;;;;;;;;;6268617;22;20040;-80
2022/11/19 13:44:37;;;;;;;15.23;8.68;;;;;;;;;;6232055;22;20012;-81
2022/11/19 13:44:42;;;;;;;15.07;8.95;;;;;;;;;;6264437;22;20520;-80
2022/11/19 13:47:09;;;;;;;14.35;8.63;;;;;;;;;;6265048;22;20023;-79
2022/11/19 13:49:36;;;;;;;20.45;8.90;;;;;;;;;;6268240;22;20028;-78
2022/11/19 13:52:02;;;;;;;14.65;8.43;;;;;;;;;;6268215;22;20141;-79
2022/11/19 13:54:29;;;;;;;12.52;8.23;;;;;;;;;;6268159;22;19996;-80
2022/11/19 13:56:55;;;;;;;15.85;8.07;;;;;;;;;;6245194;22;20040;-81
2022/11/19 13:59:23;;;;;;;13.88;8.45;;;;;;;;;;6245475;22;20793;-79
2022/11/19 14:01:55;;;;;;;12.95;8.05;;;;;;;;;;6243856;23;20019;-80
2022/11/19 14:04:38;;;;;;;15.45;8.32;;;;;;;;;;6245491;23;20090;-80
2022/11/19 14:07:07;;;;;;;13.02;7.90;;;;;;;;;;6244609;22;20016;-79
2022/11/19 14:09:51;;;;;;;14.38;8.18;;;;;;;;;;6245935;23;20039;-79
2022/11/19 14:12:44;;;;;;;11.82;7.85;;;;;;;;;;6245026;23;20054;-80
2022/11/19 14:26:40;;;;;;;12.43;7.57;;;;;;;;;;6267431;22;20012;-81
2022/11/19 14:29:14;;;;;;;11.13;7.80;;;;;;;;;;6246391;23;20418;-80
2022/11/19 14:31:58;;;;;;;13.02;7.55;;;;;;;;;;6246537;23;20032;-80
2022/11/19 14:34:28;;;;;;;11.50;7.60;;;;;;;;;;6244926;23;20452;-80
2022/11/19 14:36:54;;;;;;;12.93;7.22;;;;;;;;;;6219066;23;20000;-80
2022/11/19 14:39:24;;;;;;;15.38;7.85;;;;;;;;;;6270269;22;20019;-80
2022/11/19 14:42:09;;;;;;;13.07;8.38;;;;;;;;;;6270561;22;20091;-80
2022/11/19 14:44:35;;;;;;;11.77;7.35;;;;;;;;;;6245453;22;20091;-80
2022/11/19 14:47:19;;;;;;;11.07;7.32;;;;;;;;;;6270098;22;20026;-80
2022/11/19 14:49:45;;;;;;;12.63;8.27;;;;;;;;;;6244359;23;20015;-81
2022/11/19 14:52:23;;;;;;;13.13;7.80;;;;;;;;;;6245772;22;20000;-80
2022/11/19 14:54:59;;;;;;;13.18;8.10;;;;;;;;;;6246330;23;20039;-82
2022/11/19 14:57:31;;;;;;;14.77;7.88;;;;;;;;;;6244691;23;20036;-81
2022/11/19 14:59:58;;;;;;;12.52;7.95;;;;;;;;;;6270123;22;20024;-81
2022/11/19 15:02:43;;;;;;;12.07;7.75;;;;;;;;;;6270251;22;20016;-81
2022/11/19 15:05:19;;;;;;;11.18;7.90;;;;;;;;;;6270533;22;20511;-81
2022/11/19 15:07:48;;;;;;;11.90;8.38;;;;;;;;;;6244435;23;20016;-81
2022/11/19 15:10:14;;;;;;;13.18;7.60;;;;;;;;;;6270152;22;20039;-81
2022/11/19 15:12:42;;;;;;;14.15;7.78;;;;;;;;;;6245761;23;20094;-83
2022/11/19 15:15:21;;;;;;;16.23;7.88;;;;;;;;;;6245423;22;20003;-81
2022/11/19 15:17:58;;;;;;;14.18;8.25;;;;;;;;;;6244675;23;20086;-80